createdAt,value
2023-03-10T00:04:35.222Z,99192.98
2023-03-10T00:09:40.675Z,99178.48
2023-03-10T00:14:46.082Z,99168.08
2023-03-10T00:19:51.757Z,99178.33
2023-03-10T00:24:57.153Z,99177.64
2023-03-10T00:30:03.551Z,99159.04
2023-03-10T00:35:09.628Z,99142.29
2023-03-10T00:40:16.174Z,99125.40
2023-03-10T00:45:21.569Z,99121.98
2023-03-10T00:50:30.680Z,99123.86
2023-03-10T00:55:36.366Z,99112.92
2023-03-10T01:00:49.265Z,99115.64
2023-03-10T01:05:57.344Z,99105.38
2023-03-10T01:11:03.393Z,99100.79
2023-03-10T01:16:09.885Z,99103.17
2023-03-10T01:21:20.281Z,99099.40
2023-03-10T01:26:26.050Z,99096.14
2023-03-10T01:31:31.870Z,99093.08
2023-03-10T01:36:37.556Z,99078.24
2023-03-10T01:41:44.891Z,99063.90
2023-03-10T01:46:52.415Z,99059.97
2023-03-10T01:52:07.360Z,99054.53
2023-03-10T01:57:13.942Z,99050.11
2023-03-10T02:02:20.483Z,99038.33
2023-03-10T02:07:29.697Z,99022.78
2023-03-10T02:12:35.154Z,99018.19
2023-03-10T02:17:41.113Z,99006.60
2023-03-10T02:22:47.141Z,98996.52
2023-03-10T02:27:53.002Z,98986.81
2023-03-10T02:33:01.701Z,98980.67
2023-03-10T02:38:07.346Z,98982.41
2023-03-10T02:43:19.288Z,98979.83
2023-03-10T02:48:31.263Z,98966.33
2023-03-10T02:53:37.206Z,98945.16
2023-03-10T02:58:43.537Z,98947.90
2023-03-10T03:03:49.169Z,98938.67
2023-03-10T03:08:54.872Z,98922.29
2023-03-10T03:14:01.638Z,98922.45
2023-03-10T03:19:07.733Z,98912.55
2023-03-10T03:24:13.267Z,98899.23
2023-03-10T03:29:18.854Z,98874.48
2023-03-10T03:34:24.336Z,98861.02
2023-03-10T03:39:32.163Z,98853.66
2023-03-10T03:44:39.693Z,98844.62
2023-03-10T03:49:45.250Z,98837.11
2023-03-10T03:54:51.061Z,98819.19
2023-03-10T03:59:56.962Z,98821.57
2023-03-10T04:05:03.425Z,98812.16
2023-03-10T04:10:13.209Z,98804.43
2023-03-10T04:15:19.291Z,98789.73
2023-03-10T04:20:25.300Z,98779.64
2023-03-10T04:25:31.755Z,98762.04
2023-03-10T04:30:37.522Z,98748.02
2023-03-10T04:35:47.362Z,98751.89
2023-03-10T04:40:58.443Z,98755.11
2023-03-10T04:46:07.751Z,98753.73
2023-03-10T04:51:14.341Z,98756.59
2023-03-10T04:56:25.116Z,98738.79
2023-03-10T05:01:33.192Z,98728.02
2023-03-10T05:06:41.256Z,98709.75
2023-03-10T05:11:54.321Z,98697.26
2023-03-10T05:17:00.110Z,98686.83
2023-03-10T05:22:07.505Z,98677.08
2023-03-10T05:27:14.973Z,98656.42
2023-03-10T05:32:21.516Z,98641.20
2023-03-10T05:37:36.750Z,98651.55
2023-03-10T05:42:42.769Z,98670.63
2023-03-10T05:47:48.718Z,98660.47
2023-03-10T05:52:55.359Z,98645.14
2023-03-10T05:58:01.537Z,98624.89
2023-03-10T06:03:08.105Z,98628.76
2023-03-10T06:08:13.608Z,98643.90
2023-03-10T06:13:20.776Z,98640.91
2023-03-10T06:18:27.255Z,98626.11
2023-03-10T06:23:32.714Z,98615.83
2023-03-10T06:28:43.909Z,98600.48
2023-03-10T06:33:49.282Z,98596.89
2023-03-10T06:38:54.913Z,98601.73
2023-03-10T06:44:00.565Z,98601.83
2023-03-10T06:49:06.015Z,98590.21
2023-03-10T06:54:25.179Z,98573.65
2023-03-10T06:59:34.260Z,98579.99
2023-03-10T07:04:40.248Z,98575.79
2023-03-10T07:09:46.296Z,98561.84
2023-03-10T07:14:51.888Z,98552.52
2023-03-10T07:19:57.908Z,98549.48
2023-03-10T07:25:05.087Z,98548.98
2023-03-10T07:30:12.633Z,98541.73
2023-03-10T07:35:18.484Z,98530.68
2023-03-10T07:40:25.204Z,98529.61
2023-03-10T07:45:33.108Z,98528.11
2023-03-10T07:50:38.622Z,98524.59
2023-03-10T07:55:44.089Z,98511.81
2023-03-10T08:00:56.211Z,98493.75
2023-03-10T08:06:03.869Z,98487.11
2023-03-10T08:11:10.625Z,98475.07
2023-03-10T08:16:18.173Z,98472.27
2023-03-10T08:21:24.317Z,98461.09
2023-03-10T08:26:29.817Z,98455.52
2023-03-10T08:31:35.402Z,98454.67
2023-03-10T08:36:41.821Z,98461.04
2023-03-10T08:41:49.813Z,98446.42
2023-03-10T08:46:55.332Z,98440.34
2023-03-10T08:52:01.186Z,98441.44
2023-03-10T08:57:06.850Z,98431.61
2023-03-10T09:02:15.267Z,98442.43
2023-03-10T09:07:20.801Z,98439.39
2023-03-10T09:12:30.738Z,98428.89
2023-03-10T09:17:40.823Z,98418.99
2023-03-10T09:22:46.572Z,98406.84
2023-03-10T09:27:52.047Z,98399.86
2023-03-10T09:32:58.296Z,98399.88
2023-03-10T09:38:04.084Z,98390.59
2023-03-10T09:43:17.378Z,98383.55
2023-03-10T09:48:41.744Z,98376.62
2023-03-10T09:53:58.513Z,98375.56
2023-03-10T09:59:11.278Z,98376.37
2023-03-10T10:04:22.526Z,98370.80
2023-03-10T10:09:42.299Z,98363.71
2023-03-10T10:14:57.258Z,98350.03
2023-03-10T10:20:09.114Z,98340.94
2023-03-10T10:25:20.373Z,98319.90
2023-03-10T10:30:32.882Z,98305.06
2023-03-10T10:35:40.610Z,98315.61
2023-03-10T10:40:51.484Z,98306.69
2023-03-10T10:46:04.454Z,98300.23
2023-03-10T10:51:24.688Z,98293.98
2023-03-10T10:56:30.630Z,98294.23
2023-03-10T11:01:52.231Z,98292.71
2023-03-10T11:07:18.003Z,98290.64
2023-03-10T11:12:31.768Z,98288.22
2023-03-10T11:17:43.718Z,98275.11
2023-03-10T11:22:53.713Z,98278.95
2023-03-10T11:28:23.283Z,98272.77
2023-03-10T11:33:35.247Z,98264.90
2023-03-10T11:38:43.910Z,98259.99
2023-03-10T11:43:58.759Z,98257.09
2023-03-10T11:49:08.596Z,98239.52
2023-03-10T11:54:20.433Z,98230.97
2023-03-10T11:59:29.252Z,98223.39
2023-03-10T12:04:40.921Z,98215.55
2023-03-10T12:09:49.281Z,98210.78
2023-03-10T12:14:55.721Z,98204.00
2023-03-10T12:20:23.622Z,98201.03
2023-03-10T12:25:51.123Z,98206.79
2023-03-10T12:31:13.809Z,98198.33
2023-03-10T12:36:40.671Z,98194.14
2023-03-10T12:41:50.923Z,98197.30
2023-03-10T12:47:21.817Z,98194.98
2023-03-10T12:52:48.578Z,98189.05
2023-03-10T12:58:07.986Z,98180.29
2023-03-10T13:03:26.353Z,98179.62
2023-03-10T13:19:21.066Z,98163.55
2023-03-10T13:24:29.207Z,98162.39
2023-03-10T13:29:35.361Z,98162.66
2023-03-10T13:34:40.785Z,98162.91
2023-03-10T13:39:46.162Z,98168.41
2023-03-10T13:44:52.507Z,98170.46
2023-03-10T13:50:01.958Z,98173.90
2023-03-10T13:55:13.529Z,98171.19
2023-03-10T14:00:22.223Z,98177.22
2023-03-10T14:05:43.719Z,98183.29
2023-03-10T14:10:49.946Z,98178.92
2023-03-10T14:15:55.935Z,98182.38
2023-03-10T14:21:25.971Z,98177.92
2023-03-10T14:26:32.606Z,98175.39
2023-03-10T14:31:37.971Z,98179.14
2023-03-10T14:36:43.481Z,98178.86
2023-03-10T14:41:48.940Z,98180.58
2023-03-10T14:46:55.407Z,98179.40
2023-03-10T14:52:00.893Z,98174.48
2023-03-10T14:57:07.295Z,98174.09
2023-03-10T15:02:20.832Z,98175.63
2023-03-10T15:07:26.414Z,98171.84
2023-03-10T15:12:32.294Z,98167.52
2023-03-10T15:17:37.820Z,98164.97
2023-03-10T15:22:43.577Z,98165.41
2023-03-10T15:27:50.960Z,98167.54
2023-03-10T15:32:56.801Z,98169.94
2023-03-10T15:38:02.816Z,98174.16
2023-03-10T15:43:09.230Z,98169.04
2023-03-10T15:48:14.842Z,98167.64
2023-03-10T15:53:20.417Z,98169.59
2023-03-10T15:58:26.185Z,98171.08
2023-03-10T16:03:33.877Z,98170.29
2023-03-10T16:08:39.903Z,98164.75
2023-03-10T16:13:46.974Z,98166.36
2023-03-10T16:18:52.870Z,98159.98
2023-03-10T16:23:58.715Z,98168.44
2023-03-10T16:29:04.507Z,98166.77
2023-03-10T16:34:10.224Z,98175.42
2023-03-10T16:39:17.859Z,98177.42
2023-03-10T16:44:23.733Z,98184.44
2023-03-10T16:49:32.031Z,98180.64
2023-03-10T16:54:38.324Z,98175.73
2023-03-10T16:59:44.925Z,98174.77
2023-03-10T17:04:50.733Z,98172.34
2023-03-10T17:09:56.776Z,98175.25
2023-03-10T17:15:03.154Z,98177.11
2023-03-10T17:20:11.336Z,98175.23
2023-03-10T17:25:17.059Z,98165.33
2023-03-10T17:30:22.893Z,98163.37
2023-03-10T17:35:28.344Z,98161.63
2023-03-10T17:40:34.851Z,98157.02
2023-03-10T17:45:40.403Z,98154.13
2023-03-10T17:50:49.366Z,98149.06
2023-03-10T17:55:57.075Z,98148.39
2023-03-10T18:01:10.163Z,98147.05
2023-03-10T18:06:18.976Z,98150.90
2023-03-10T18:11:25.440Z,98154.61
2023-03-10T18:16:33.172Z,98150.91
2023-03-10T18:21:38.795Z,98150.16
2023-03-10T18:26:45.747Z,98150.70
2023-03-10T18:31:51.375Z,98142.50
2023-03-10T18:36:57.034Z,98143.41
2023-03-10T18:42:03.376Z,98143.48
2023-03-10T18:47:08.822Z,98136.59
2023-03-10T18:52:16.189Z,98124.73
2023-03-10T18:57:21.721Z,98111.88
2023-03-10T19:02:27.587Z,98106.61
2023-03-10T19:07:34.337Z,98102.70
2023-03-10T19:12:40.214Z,98097.70
2023-03-10T19:17:46.057Z,98095.92
2023-03-10T19:22:52.754Z,98088.70
2023-03-10T19:27:58.726Z,98079.94
2023-03-10T19:33:04.862Z,98080.60
2023-03-10T19:38:10.479Z,98079.63
2023-03-10T19:43:16.057Z,98069.73
2023-03-10T19:48:21.690Z,98064.71
2023-03-10T19:53:29.090Z,98059.73
2023-03-10T19:58:34.838Z,98054.38
2023-03-10T20:03:40.698Z,98063.52
2023-03-10T20:08:46.268Z,98067.02
2023-03-10T20:13:54.356Z,98057.20
2023-03-10T20:19:00.547Z,98053.17
2023-03-10T20:24:07.037Z,98050.55
2023-03-10T20:29:12.701Z,98042.11
2023-03-10T20:34:22.059Z,98033.60
2023-03-10T20:39:27.834Z,98029.23
2023-03-10T20:44:33.380Z,98033.16
2023-03-10T20:49:38.859Z,98037.08
2023-03-10T20:54:44.494Z,98040.58
2023-03-10T20:59:50.044Z,98023.56
2023-03-10T21:04:56.418Z,98013.83
2023-03-10T21:10:04.032Z,98004.12
2023-03-10T21:15:13.413Z,97999.98
2023-03-10T21:20:21.190Z,97985.84
2023-03-10T21:25:28.509Z,97978.77
2023-03-10T21:30:35.282Z,97969.55
2023-03-10T21:35:43.043Z,97963.31
2023-03-10T21:40:48.411Z,97954.51
2023-03-10T21:45:53.960Z,97947.40
2023-03-10T21:50:59.792Z,97940.62
2023-03-10T21:56:06.313Z,97935.65
2023-03-10T22:01:14.511Z,97925.27
2023-03-10T22:06:20.431Z,97916.98
2023-03-10T22:11:26.366Z,97908.45
2023-03-10T22:16:32.033Z,97897.30
2023-03-10T22:21:37.535Z,97891.92
2023-03-10T22:26:43.213Z,97884.27
2023-03-10T22:31:50.358Z,97877.23
2023-03-10T22:36:55.984Z,97870.35
2023-03-10T22:42:01.508Z,97866.52
2023-03-10T22:47:08.171Z,97859.17
2023-03-10T22:52:13.629Z,97851.49
2023-03-10T22:57:19.295Z,97847.69
2023-03-10T23:02:24.849Z,97845.98
2023-03-10T23:07:30.442Z,97842.77
2023-03-10T23:12:35.814Z,97843.27
2023-03-10T23:17:41.305Z,97849.20
2023-03-10T23:22:47.758Z,97851.93
2023-03-10T23:27:53.439Z,97850.05
2023-03-10T23:32:59.393Z,97850.02
2023-03-10T23:38:07.075Z,97839.77
2023-03-10T23:43:13.485Z,97838.16
2023-03-10T23:48:20.494Z,97835.85
2023-03-10T23:53:28.481Z,97836.05
2023-03-10T23:58:34.262Z,97833.98
